Terminal Aerodrome Forecast
Issued by NWS Boston, MA

Home | Current Version | Previous Version | Text Only | Print | Product List | Glossary On
Versions: 1 2 3 4 5 6 7 8 9 10 11 12 13 14 15 16 17 18 19 20 21 22 23 24 25 26 27 28 29 30 31 32 33 34 35 36 37 38 39 40 41
000
FTUS41 KBOX 031730
TAFPVD
TAF
KPVD 031730Z 0318/0418 19005KT P6SM BKN140
     FM040000 18007KT 1SM -SN OVC030
     FM040300 18008KT 1SM -SNPL OVC010
     FM040400 19008KT 5SM -FZRAPL OVC010
     FM040700 22008KT 6SM -RA OVC008
     FM041100 24008KT P6SM OVC008
     FM041600 26008KT P6SM OVC100=

USA.gov is the U.S. government's official web portal to all federal, state and local government web resources and services.